METAR AND TAF INFORMATION
METAR FOR PAYA
ADDS - METARS form results

(0559 UTC 23 May 2019)
Data provider http://aviationweather.gov/metar/data/
 
METAR text: PAYA 230553Z AUTO 00000KT 10SM OVC026 09/06 A3018 RMK AO2 SLP221 T00940056 10117 20094 58006 TSNO
Conditions at: PAYA (YAKUTAT , AK, US) observed 0553 UTC 23 May 2019
Temperature: 9.4°C (49°F)
Dewpoint: 5.6°C (42°F) [RH = 77%]
Pressure (altimeter): 30.18 inches Hg (1022.1 mb)
[Sea-level pressure: 1022.1 mb]
Winds: calm
Visibility: 10 or more miles (16+ km)
Ceiling: 2600 feet AGL
Clouds: overcast cloud deck at 2600 feet AGL
Weather: automated observation with no human augmentation;
there may or may not be significant weather present at this time

METAR text: PAYA 230533Z AUTO 00000KT 10SM BKN027 OVC120 09/05 A3019 RMK AO2 T00940050 TSNO
Conditions at: PAYA (YAKUTAT , AK, US) observed 0533 UTC 23 May 2019
Temperature: 9.4°C (49°F)
Dewpoint: 5.0°C (41°F) [RH = 74%]
Pressure (altimeter): 30.19 inches Hg (1022.4 mb)
Winds: calm
Visibility: 10 or more miles (16+ km)
Ceiling: 2700 feet AGL
Clouds: broken clouds at 2700 feet AGL
overcast cloud deck at 12000 feet AGL
Weather: automated observation with no human augmentation;
there may or may not be significant weather present at this time

METAR text: PAYA 230525Z AUTO 00000KT 10SM SCT027 BKN120 09/06 A3018 RMK AO2 T00940056 TSNO
Conditions at: PAYA (YAKUTAT , AK, US) observed 0525 UTC 23 May 2019
Temperature: 9.4°C (49°F)
Dewpoint: 5.6°C (42°F) [RH = 77%]
Pressure (altimeter): 30.18 inches Hg (1022.1 mb)
Winds: calm
Visibility: 10 or more miles (16+ km)
Ceiling: 12000 feet AGL
Clouds: scattered clouds at 2700 feet AGL
broken clouds at 12000 feet AGL
Weather: automated observation with no human augmentation;
there may or may not be significant weather present at this time

Forecast for: PAYA (YAKUTAT , AK, US)
Text: PAYA 230527Z 2306/2406 VRB03KT P6SM SCT028 OVC120
Forecast period: 0600 to 1000 UTC 23 May 2019
Forecast type: FROM: standard forecast or significant change
Winds: variable direction winds at 3 MPH (3 knots; 1.5 m/s)
Visibility: 6 or more miles 10+ km)
Ceiling: 12000 feet AGL
Clouds: scattered clouds at 2800 feet AGL
overcast cloud deck at 12000 feet AGL
Weather: no significant weather forecast for this period
Text: TEMPO 2306/2310 BKN028
Forecast period: 0600 to 1000 UTC 23 May 2019
Forecast type: TEMPORARY: The following changes expected for less than half the time period
Visibility: missing
Ceiling: 2800 feet AGL
Clouds: broken clouds at 2800 feet AGL
Weather: no significant weather forecast for this period
Text: FM231000 VRB03KT P6SM -RA BKN015 OVC060
Forecast period: 1000 UTC 23 May 2019 to 0000 UTC 24 May 2019
Forecast type: FROM: standard forecast or significant change
Winds: variable direction winds at 3 MPH (3 knots; 1.5 m/s)
Visibility: 6 or more miles 10+ km)
Ceiling: 1500 feet AGL
Clouds: broken clouds at 1500 feet AGL
overcast cloud deck at 6000 feet AGL
Weather: -RA  (light rain)
Text: FM240000 VRB04KT P6SM VCSH BKN025 OVC050 AMD LTD TO CLD VIS AND WIND
Forecast period: 0000 to 0600 UTC 24 May 2019
Forecast type: FROM: standard forecast or significant change
Winds: variable direction winds at 5 MPH (4 knots; 2.1 m/s)
Visibility: 6 or more miles 10+ km)
Ceiling: 2500 feet AGL
Clouds: broken clouds at 2500 feet AGL
overcast cloud deck at 5000 feet AGL
Weather: VCSH  (showers in vicinity)

 AIRPORT MAP

 RUNWAY INFORMATION
Runway 02 Runway length 6475 ft Runway width 150 ft
Runway elevation 18 ft Runway displaced threshold 0 ft Runway heading 45
Runway 20 Runway length 6475 ft Runway width 150 ft
Runway elevation 30 ft Runway displaced threshold 0 ft Runway heading 225
Runway 11 Runway length 7745 ft Runway width 150 ft
Runway elevation 32 ft Runway displaced threshold 0 ft Runway heading 135
Runway 29 Runway length 7745 ft Runway width 150 ft
Runway elevation 19 ft Runway displaced threshold 0 ft Runway heading 315

 AIRPORT FREQUENCIES

 AIRPORT NEAR NAVIGATION AIDS
Type NDB Name Ocean Cape Frequency 385 KHZ
Type VOR-DME Name Yakutat Frequency 113300 KHZ



Powered by Virtual Airlines Manager [v2.6.2]